createdAt,value
2019-03-17T00:21:23.376Z,71.75
2019-03-17T00:23:52.435Z,72.34
2019-03-17T00:26:21.329Z,71.79
2019-03-17T00:28:50.306Z,72.16
2019-03-17T00:31:24.063Z,71.76
2019-03-17T00:33:48.307Z,69.79
2019-03-17T00:36:17.502Z,70.42
2019-03-17T00:38:46.536Z,70.58
2019-03-17T00:41:15.644Z,69.85
2019-03-17T00:43:45.005Z,69.38
2019-03-17T00:46:14.272Z,69.67
2019-03-17T00:48:43.264Z,68.72
2019-03-17T00:51:12.294Z,68.90
2019-03-17T00:53:41.228Z,68.50
2019-03-17T00:56:10.201Z,68.29
2019-03-17T00:58:39.147Z,68.51
2019-03-17T01:01:08.280Z,68.82
2019-03-17T01:03:37.211Z,68.72
2019-03-17T01:06:06.277Z,68.64
2019-03-17T01:08:35.253Z,69.10
2019-03-17T01:11:04.264Z,68.32
2019-03-17T01:13:33.230Z,68.14
2019-03-17T01:16:02.261Z,67.97
2019-03-17T01:18:31.168Z,66.48
2019-03-17T01:21:00.161Z,67.35
2019-03-17T01:23:29.221Z,67.23
2019-03-17T01:25:58.156Z,67.88
2019-03-17T01:28:27.151Z,67.05
2019-03-17T01:30:56.129Z,66.87
2019-03-17T01:33:25.017Z,66.98
2019-03-17T01:35:54.026Z,66.86
2019-03-17T01:38:23.189Z,67.04
2019-03-17T01:40:52.207Z,66.03
2019-03-17T01:43:21.396Z,65.89
2019-03-17T01:45:50.402Z,65.40
2019-03-17T01:48:19.412Z,65.11
2019-03-17T01:50:48.587Z,65.45
2019-03-17T01:53:17.487Z,65.25
2019-03-17T01:55:49.453Z,65.21
2019-03-17T01:58:18.359Z,64.93
2019-03-17T02:00:47.393Z,65.16
2019-03-17T02:03:16.352Z,65.12
2019-03-17T02:05:45.355Z,65.23
2019-03-17T02:08:14.308Z,65.73
2019-03-17T02:10:43.276Z,65.58
2019-03-17T02:13:12.269Z,65.90
2019-03-17T02:15:41.305Z,66.04
2019-03-17T02:18:10.191Z,66.07
2019-03-17T02:20:39.210Z,65.81
2019-03-17T02:23:08.087Z,66.78
2019-03-17T02:25:37.061Z,66.84
2019-03-17T02:28:06.042Z,67.08
2019-03-17T02:30:35.078Z,67.43
2019-03-17T02:33:04.076Z,67.52
2019-03-17T02:35:39.318Z,67.88
2019-03-17T02:38:01.949Z,67.85
2019-03-17T02:40:30.977Z,68.08
2019-03-17T02:42:59.926Z,68.53
2019-03-17T02:45:28.880Z,68.23
2019-03-17T02:47:57.919Z,68.44
2019-03-17T02:50:26.851Z,68.99
2019-03-17T02:52:55.758Z,69.40
2019-03-17T02:55:24.751Z,70.45
2019-03-17T02:57:53.714Z,71.60
2019-03-17T03:00:22.703Z,71.66
2019-03-17T03:02:51.594Z,72.28
2019-03-17T03:05:20.623Z,73.22
2019-03-17T03:07:49.624Z,75.26
2019-03-17T03:10:18.559Z,76.57
2019-03-17T03:12:47.511Z,77.61
2019-03-17T03:15:16.434Z,79.04
2019-03-17T03:17:45.306Z,78.58
2019-03-17T03:20:14.208Z,78.87
2019-03-17T03:22:43.200Z,80.61
2019-03-17T03:25:12.164Z,80.80
2019-03-17T03:27:41.054Z,80.86
2019-03-17T03:30:10.099Z,80.79
2019-03-17T03:32:38.991Z,82.04
2019-03-17T03:35:08.139Z,81.87
2019-03-17T03:37:36.959Z,82.80
2019-03-17T03:40:06.018Z,83.23
2019-03-17T03:42:34.882Z,84.11
2019-03-17T03:45:04.379Z,84.59
2019-03-17T03:47:33.276Z,84.23
2019-03-17T03:50:05.121Z,84.02
2019-03-17T03:52:33.983Z,83.74
2019-03-17T03:55:02.897Z,84.73
2019-03-17T03:57:31.814Z,84.71
2019-03-17T04:00:00.809Z,85.02
2019-03-17T04:02:29.783Z,84.16
2019-03-17T04:04:58.691Z,83.65
2019-03-17T04:07:27.554Z,84.33
2019-03-17T04:09:56.465Z,84.69
2019-03-17T04:12:25.387Z,84.06
2019-03-17T04:14:54.384Z,84.96
2019-03-17T04:17:23.236Z,85.38
2019-03-17T04:19:52.163Z,85.09
2019-03-17T04:22:21.095Z,85.98
2019-03-17T04:24:49.999Z,85.94
2019-03-17T04:27:18.928Z,86.01
2019-03-17T04:29:47.883Z,86.33
2019-03-17T04:32:16.832Z,85.03
2019-03-17T04:34:45.723Z,85.83
2019-03-17T04:37:14.581Z,86.00
2019-03-17T04:39:43.532Z,86.64
2019-03-17T04:42:12.474Z,86.36
2019-03-17T04:44:41.431Z,87.55
2019-03-17T04:47:10.414Z,88.33
2019-03-17T04:49:39.271Z,88.43
2019-03-17T04:52:08.257Z,87.62
2019-03-17T04:54:37.137Z,88.37
2019-03-17T04:57:06.089Z,88.49
2019-03-17T04:59:35.001Z,89.36
2019-03-17T05:02:03.941Z,87.73
2019-03-17T05:04:32.928Z,87.34
2019-03-17T05:07:01.795Z,87.23
2019-03-17T05:09:30.715Z,87.53
2019-03-17T05:11:59.634Z,86.71
2019-03-17T05:14:28.575Z,87.19
2019-03-17T05:16:57.504Z,86.83
2019-03-17T05:19:26.382Z,86.09
2019-03-17T05:21:55.313Z,85.43
2019-03-17T05:24:24.261Z,84.73
2019-03-17T05:26:53.146Z,84.64
2019-03-17T05:29:22.079Z,84.51
2019-03-17T05:31:51.008Z,84.78
2019-03-17T05:34:19.908Z,84.89
2019-03-17T05:36:48.836Z,83.38
2019-03-17T05:39:17.742Z,83.91
2019-03-17T05:41:46.638Z,84.12
2019-03-17T05:44:15.563Z,83.66
2019-03-17T05:46:44.518Z,83.46
2019-03-17T05:49:13.448Z,81.92
2019-03-17T05:51:42.369Z,82.98
2019-03-17T05:54:11.331Z,83.14
2019-03-17T05:56:40.312Z,82.93
2019-03-17T05:59:09.332Z,82.79
2019-03-17T06:01:38.260Z,82.30
2019-03-17T06:04:07.216Z,80.13
2019-03-17T06:06:36.093Z,81.30
2019-03-17T06:09:07.086Z,82.03
2019-03-17T06:11:36.055Z,81.73
2019-03-17T06:14:05.109Z,81.52
2019-03-17T06:16:33.999Z,81.47
2019-03-17T06:19:02.918Z,81.60
2019-03-17T06:21:31.831Z,81.79
2019-03-17T06:24:00.731Z,80.60
2019-03-17T06:26:29.676Z,81.49
2019-03-17T06:28:58.698Z,81.62
2019-03-17T06:31:27.570Z,81.67
2019-03-17T06:33:56.590Z,81.83
2019-03-17T06:36:25.482Z,81.74
2019-03-17T06:38:54.414Z,82.19
2019-03-17T06:41:23.422Z,82.61
2019-03-17T06:43:52.260Z,82.08
2019-03-17T06:46:21.187Z,82.48
2019-03-17T06:48:50.401Z,82.48
2019-03-17T06:51:19.232Z,82.58
2019-03-17T06:53:56.359Z,82.56
2019-03-17T06:56:17.132Z,82.85
2019-03-17T06:58:46.087Z,82.39
2019-03-17T07:01:15.012Z,82.40
2019-03-17T07:03:43.965Z,82.47
2019-03-17T07:06:14.375Z,81.59
2019-03-17T07:08:45.175Z,81.84
2019-03-17T07:11:14.045Z,81.63
2019-03-17T07:13:42.983Z,81.28
2019-03-17T07:16:11.927Z,80.20
2019-03-17T07:18:41.657Z,81.30
2019-03-17T07:21:10.576Z,80.81
2019-03-17T07:23:39.527Z,80.06
2019-03-17T07:26:08.702Z,79.30
2019-03-17T07:28:37.647Z,76.99
2019-03-17T07:31:06.684Z,75.89
2019-03-17T07:33:35.688Z,75.17
2019-03-17T07:36:04.604Z,75.40
2019-03-17T07:38:33.459Z,75.09
2019-03-17T07:41:02.432Z,75.33
2019-03-17T07:43:31.362Z,74.22
2019-03-17T07:46:00.356Z,73.09
2019-03-17T07:48:32.300Z,73.72
2019-03-17T07:51:01.221Z,73.41
2019-03-17T07:53:30.160Z,74.18
2019-03-17T07:55:59.164Z,74.36
2019-03-17T07:58:28.101Z,75.67
2019-03-17T08:00:57.071Z,75.02
2019-03-17T08:03:25.931Z,74.39
2019-03-17T08:05:54.878Z,72.71
2019-03-17T08:08:23.900Z,72.10
2019-03-17T08:10:52.808Z,72.48
2019-03-17T08:13:21.827Z,73.24
2019-03-17T08:15:51.510Z,74.24
2019-03-17T08:18:20.504Z,73.85
2019-03-17T08:20:49.521Z,73.75
2019-03-17T08:23:18.430Z,74.92
2019-03-17T08:25:47.382Z,74.86
2019-03-17T08:28:16.285Z,74.64
2019-03-17T08:30:53.099Z,73.09
2019-03-17T08:33:14.057Z,73.36
2019-03-17T08:35:42.986Z,72.19
2019-03-17T08:38:21.223Z,71.10
2019-03-17T08:40:40.990Z,70.16
2019-03-17T08:43:09.995Z,68.71
2019-03-17T08:45:38.994Z,68.96
2019-03-17T08:48:07.976Z,70.25
2019-03-17T08:50:36.994Z,70.98
2019-03-17T08:53:06.030Z,71.66
2019-03-17T08:55:35.007Z,71.91
2019-03-17T08:58:03.946Z,73.02
2019-03-17T09:00:32.894Z,71.83
2019-03-17T09:03:01.883Z,72.09
2019-03-17T09:05:30.824Z,72.57
2019-03-17T09:07:59.798Z,72.71
2019-03-17T09:10:28.706Z,71.67
2019-03-17T09:12:57.671Z,68.89
2019-03-17T09:15:26.660Z,67.10
2019-03-17T09:17:55.575Z,65.73
2019-03-17T09:20:24.546Z,66.63
2019-03-17T09:22:53.554Z,67.35
2019-03-17T09:25:22.436Z,68.60
2019-03-17T09:27:51.442Z,69.84
2019-03-17T09:30:20.371Z,70.41
2019-03-17T09:32:49.294Z,71.56
2019-03-17T09:35:18.304Z,72.93
2019-03-17T09:37:47.198Z,73.16
2019-03-17T09:40:16.042Z,73.08
2019-03-17T09:42:45.009Z,72.45
2019-03-17T09:45:13.980Z,69.30
2019-03-17T09:47:42.949Z,64.15
2019-03-17T09:50:11.932Z,61.44
2019-03-17T09:52:40.950Z,56.43
2019-03-17T09:55:09.945Z,56.66
2019-03-17T09:57:38.934Z,59.95
2019-03-17T10:00:09.480Z,61.63
2019-03-17T10:02:38.458Z,64.01
2019-03-17T10:05:08.151Z,65.98
2019-03-17T10:07:37.045Z,69.41
2019-03-17T10:10:06.302Z,69.80
2019-03-17T10:12:35.240Z,70.33
2019-03-17T10:15:04.583Z,71.17
2019-03-17T10:17:33.471Z,72.46
2019-03-17T10:20:02.396Z,74.18
2019-03-17T10:22:31.338Z,74.22
2019-03-17T10:25:00.399Z,74.42
2019-03-17T10:27:29.175Z,74.82
2019-03-17T10:29:58.119Z,74.08
2019-03-17T10:32:27.066Z,74.51
2019-03-17T10:34:55.975Z,74.19
2019-03-17T10:37:24.826Z,69.72
2019-03-17T10:39:53.761Z,62.37
2019-03-17T10:42:25.600Z,60.43
2019-03-17T10:44:54.579Z,57.44
2019-03-17T10:47:23.437Z,49.39
2019-03-17T10:49:52.379Z,51.48
2019-03-17T10:52:21.303Z,54.17
2019-03-17T10:54:50.365Z,53.18
2019-03-17T10:57:19.346Z,54.08
2019-03-17T10:59:48.250Z,54.70
2019-03-17T11:02:17.154Z,57.45
2019-03-17T11:04:46.850Z,58.93
2019-03-17T11:07:15.818Z,60.46
2019-03-17T11:09:44.779Z,55.01
2019-03-17T11:12:13.645Z,54.26
2019-03-17T11:14:42.564Z,50.22
2019-03-17T11:17:11.534Z,49.20
2019-03-17T11:19:40.522Z,43.07
2019-03-17T11:22:09.479Z,43.24
2019-03-17T11:24:38.416Z,44.35
2019-03-17T11:27:07.453Z,47.74
2019-03-17T11:29:36.389Z,44.63
2019-03-17T11:32:06.782Z,47.55
2019-03-17T11:34:34.369Z,52.67
2019-03-17T11:37:03.370Z,56.64
2019-03-17T11:39:37.687Z,59.90
2019-03-17T11:42:01.181Z,58.97
2019-03-17T11:44:30.116Z,62.55
2019-03-17T11:46:59.141Z,64.10
2019-03-17T11:49:28.027Z,64.33
2019-03-17T11:51:56.967Z,65.26
2019-03-17T11:54:25.921Z,63.93
2019-03-17T11:56:54.916Z,63.58
2019-03-17T11:59:23.856Z,63.33
2019-03-17T12:01:52.787Z,62.35
2019-03-17T12:04:21.669Z,65.48
2019-03-17T12:06:50.576Z,67.26
2019-03-17T12:09:28.583Z,68.15
2019-03-17T12:11:48.476Z,69.05
2019-03-17T12:14:17.407Z,68.28
2019-03-17T12:16:46.309Z,68.35
2019-03-17T12:19:15.266Z,67.61
2019-03-17T12:21:44.181Z,67.20
2019-03-17T12:24:13.129Z,66.17
2019-03-17T12:26:42.039Z,65.89
2019-03-17T12:29:10.953Z,66.49
2019-03-17T12:31:39.929Z,67.03
2019-03-17T12:34:08.877Z,67.79
2019-03-17T12:36:37.837Z,68.50
2019-03-17T12:39:07.342Z,68.78
2019-03-17T12:41:38.264Z,69.37
2019-03-17T12:44:05.227Z,69.33
2019-03-17T12:46:34.157Z,69.23
2019-03-17T12:49:03.096Z,69.04
2019-03-17T12:51:32.036Z,69.01
2019-03-17T12:54:01.025Z,68.50
2019-03-17T12:56:29.882Z,68.88
2019-03-17T12:58:58.799Z,67.40
2019-03-17T13:01:27.724Z,66.73
2019-03-17T13:03:56.641Z,65.91
2019-03-17T13:06:25.578Z,65.63
2019-03-17T13:08:54.517Z,63.64
2019-03-17T13:11:23.502Z,64.21
2019-03-17T13:13:52.446Z,62.93
2019-03-17T13:16:21.341Z,63.09
2019-03-17T13:18:50.236Z,62.29
2019-03-17T13:21:19.212Z,59.95
2019-03-17T13:23:48.061Z,61.09
2019-03-17T13:26:16.967Z,59.22
2019-03-17T13:28:45.939Z,58.25
2019-03-17T13:31:14.778Z,58.38
2019-03-17T13:33:43.759Z,59.44
2019-03-17T13:36:12.731Z,58.69
2019-03-17T13:38:41.717Z,56.52
2019-03-17T13:41:10.739Z,57.65
2019-03-17T13:43:39.663Z,56.51
2019-03-17T13:46:08.774Z,55.82
2019-03-17T13:48:37.702Z,55.83
2019-03-17T13:51:06.651Z,55.19
2019-03-17T13:53:35.583Z,53.19
2019-03-17T13:56:04.624Z,53.16
2019-03-17T13:58:33.561Z,53.41
2019-03-17T14:01:03.770Z,53.34
2019-03-17T14:03:32.726Z,54.24
2019-03-17T14:06:01.644Z,52.91
2019-03-17T14:08:30.613Z,52.45
2019-03-17T14:10:59.605Z,52.10
2019-03-17T14:13:28.560Z,52.57
2019-03-17T14:15:57.449Z,52.58
2019-03-17T14:18:26.378Z,54.32
2019-03-17T14:20:55.279Z,54.23
2019-03-17T14:23:24.225Z,53.45
2019-03-17T14:25:53.948Z,54.76
2019-03-17T14:28:22.964Z,52.94
2019-03-17T14:30:51.992Z,54.10
2019-03-17T14:33:20.909Z,54.81
2019-03-17T14:35:49.878Z,56.05
2019-03-17T14:38:18.821Z,56.56
2019-03-17T14:40:53.372Z,55.51
2019-03-17T14:43:17.651Z,53.89
2019-03-17T14:45:46.734Z,53.09
2019-03-17T14:48:15.616Z,52.82
2019-03-17T14:50:44.580Z,52.50
2019-03-17T14:53:13.513Z,53.51
2019-03-17T14:55:42.481Z,53.29
2019-03-17T14:58:11.412Z,54.46
2019-03-17T15:00:40.434Z,53.91
2019-03-17T15:03:09.531Z,54.60
2019-03-17T15:05:38.403Z,55.08
2019-03-17T15:08:07.485Z,55.51
2019-03-17T15:10:36.484Z,55.10
2019-03-17T15:13:05.469Z,55.71
2019-03-17T15:15:34.510Z,54.73
2019-03-17T15:18:03.515Z,55.20
2019-03-17T15:20:32.450Z,53.52
2019-03-17T15:23:01.406Z,53.71
2019-03-17T15:25:30.286Z,53.14
2019-03-17T15:27:59.227Z,52.15
2019-03-17T15:30:28.137Z,51.86
2019-03-17T15:32:57.208Z,53.43
2019-03-17T15:35:26.178Z,52.25
2019-03-17T15:37:55.097Z,51.57
2019-03-17T15:40:24.062Z,52.31
2019-03-17T15:42:52.955Z,52.16
2019-03-17T15:45:21.948Z,52.52
2019-03-17T15:47:50.859Z,51.99
2019-03-17T15:50:19.833Z,52.04
2019-03-17T15:52:48.799Z,52.78
2019-03-17T15:55:17.783Z,53.02
2019-03-17T15:57:47.075Z,53.33
2019-03-17T16:00:25.136Z,53.88
2019-03-17T16:02:46.639Z,53.76
2019-03-17T16:05:15.622Z,54.18
2019-03-17T16:07:44.554Z,54.62
2019-03-17T16:10:14.609Z,54.88
2019-03-17T16:12:43.538Z,55.58
2019-03-17T16:15:12.851Z,55.12
2019-03-17T16:17:41.769Z,55.80
2019-03-17T16:20:12.677Z,54.17
2019-03-17T16:22:41.645Z,54.07
2019-03-17T16:25:10.820Z,55.09
2019-03-17T16:27:39.916Z,54.93
2019-03-17T16:30:12.136Z,55.58
2019-03-17T16:32:41.070Z,55.37
2019-03-17T16:35:10.062Z,55.47
2019-03-17T16:37:39.059Z,55.73
2019-03-17T16:40:09.660Z,56.43
2019-03-17T16:42:38.609Z,57.08
2019-03-17T16:45:07.695Z,56.84
2019-03-17T16:47:36.621Z,57.02
2019-03-17T16:50:06.865Z,58.17
2019-03-17T16:52:35.903Z,56.02
2019-03-17T16:55:05.692Z,57.18
2019-03-17T16:57:34.605Z,57.33
2019-03-17T17:00:03.600Z,57.55
2019-03-17T17:02:32.538Z,57.75
2019-03-17T17:05:01.587Z,58.15
2019-03-17T17:07:30.493Z,57.83
2019-03-17T17:09:59.558Z,57.76
2019-03-17T17:12:28.459Z,58.14
2019-03-17T17:14:57.405Z,58.29
2019-03-17T17:17:26.292Z,58.06
2019-03-17T17:19:55.288Z,58.41
2019-03-17T17:22:24.289Z,58.38
2019-03-17T17:24:53.208Z,59.00
2019-03-17T17:27:24.750Z,58.87
2019-03-17T17:29:53.729Z,58.58
2019-03-17T17:32:22.714Z,58.74
2019-03-17T17:34:51.695Z,58.37
2019-03-17T17:37:20.646Z,59.11
2019-03-17T17:39:49.640Z,58.47
2019-03-17T17:42:18.628Z,58.67
2019-03-17T17:44:47.543Z,59.17
2019-03-17T17:47:16.595Z,59.54
2019-03-17T17:49:45.511Z,59.04
2019-03-17T17:52:14.470Z,58.73
2019-03-17T17:54:43.409Z,59.26
2019-03-17T17:57:12.470Z,58.60
2019-03-17T17:59:41.439Z,59.43
2019-03-17T18:02:10.539Z,58.88
2019-03-17T18:04:39.423Z,59.04
2019-03-17T18:07:08.499Z,59.52
2019-03-17T18:09:37.340Z,59.07
2019-03-17T18:12:06.369Z,59.12
2019-03-17T18:14:35.401Z,58.70
2019-03-17T18:17:04.306Z,58.94
2019-03-17T18:19:33.261Z,59.28
2019-03-17T18:22:02.286Z,59.31
2019-03-17T18:24:31.161Z,59.40
2019-03-17T18:27:00.155Z,59.24
2019-03-17T18:29:29.159Z,59.76
2019-03-17T18:31:58.145Z,59.92
2019-03-17T18:34:27.159Z,60.28
2019-03-17T18:36:56.056Z,59.98
2019-03-17T18:39:24.987Z,60.04
2019-03-17T18:41:53.956Z,61.17
2019-03-17T18:44:22.908Z,61.48
2019-03-17T18:46:52.686Z,61.79
2019-03-17T18:49:21.691Z,61.94
2019-03-17T18:51:50.545Z,62.38
2019-03-17T18:54:19.518Z,62.54
2019-03-17T18:56:48.455Z,62.77
2019-03-17T18:59:18.072Z,63.10
2019-03-17T19:01:46.352Z,63.19
2019-03-17T19:04:15.328Z,64.14
2019-03-17T19:06:44.239Z,63.61
2019-03-17T19:09:13.177Z,64.36
2019-03-17T19:11:42.150Z,64.49
2019-03-17T19:14:11.122Z,64.33
2019-03-17T19:16:40.110Z,64.32
2019-03-17T19:19:09.042Z,64.27
2019-03-17T19:21:38.014Z,64.50
2019-03-17T19:24:06.955Z,64.01
2019-03-17T19:26:35.910Z,64.53
2019-03-17T19:29:05.008Z,64.72
2019-03-17T19:31:33.903Z,64.75
2019-03-17T19:34:02.861Z,64.39
2019-03-17T19:36:31.865Z,64.83
2019-03-17T19:39:00.846Z,64.68
2019-03-17T19:41:29.775Z,65.32
2019-03-17T19:43:58.763Z,65.41
2019-03-17T19:46:28.366Z,65.20
2019-03-17T19:48:57.322Z,65.74
2019-03-17T19:51:26.260Z,66.00
2019-03-17T19:53:55.221Z,66.19
2019-03-17T19:56:24.177Z,66.58
2019-03-17T19:58:53.075Z,65.87
2019-03-17T20:01:22.018Z,64.76
2019-03-17T20:03:50.964Z,65.93
2019-03-17T20:06:19.891Z,66.51
2019-03-17T20:08:48.845Z,66.67
2019-03-17T20:11:17.827Z,67.33
2019-03-17T20:13:46.768Z,67.64
2019-03-17T20:16:15.734Z,68.57
2019-03-17T20:18:44.743Z,68.78
2019-03-17T20:21:13.664Z,69.30
2019-03-17T20:23:42.679Z,70.35
2019-03-17T20:26:11.583Z,71.86
2019-03-17T20:28:40.579Z,71.64
2019-03-17T20:31:09.504Z,72.81
2019-03-17T20:33:38.500Z,72.53
2019-03-17T20:36:07.488Z,72.72
2019-03-17T20:38:36.456Z,73.28
2019-03-17T20:41:05.420Z,73.34
2019-03-17T20:43:35.330Z,73.82
2019-03-17T20:46:03.323Z,73.65
2019-03-17T20:48:32.324Z,73.50
2019-03-17T20:51:01.251Z,74.01
2019-03-17T20:53:30.244Z,74.35
2019-03-17T20:55:59.238Z,75.25
2019-03-17T20:58:28.127Z,74.33
2019-03-17T21:00:57.132Z,74.86
2019-03-17T21:03:26.116Z,75.30
2019-03-17T21:05:55.037Z,76.24
2019-03-17T21:08:23.965Z,76.48
2019-03-17T21:10:52.949Z,76.40
2019-03-17T21:13:21.917Z,76.71
2019-03-17T21:15:50.924Z,76.69
2019-03-17T21:18:19.869Z,76.93
2019-03-17T21:20:48.904Z,76.41
2019-03-17T21:23:17.946Z,76.59
2019-03-17T21:25:46.878Z,76.75
2019-03-17T21:28:15.886Z,76.99
2019-03-17T21:30:44.811Z,77.53
2019-03-17T21:33:13.739Z,77.03
2019-03-17T21:35:42.751Z,78.81
2019-03-17T21:38:11.727Z,78.33
2019-03-17T21:40:56.480Z,77.81
2019-03-17T21:43:09.789Z,77.47
2019-03-17T21:45:38.770Z,78.28
2019-03-17T21:48:07.707Z,77.31
2019-03-17T21:50:36.642Z,76.49
2019-03-17T21:53:05.718Z,77.37
2019-03-17T21:55:37.306Z,77.56
2019-03-17T21:58:08.189Z,76.18
2019-03-17T22:00:35.151Z,77.21
2019-03-17T22:03:04.288Z,77.49
2019-03-17T22:05:33.266Z,77.08
2019-03-17T22:08:02.184Z,76.99
2019-03-17T22:10:31.111Z,77.22
2019-03-17T22:13:00.091Z,77.48
2019-03-17T22:15:31.569Z,78.37
2019-03-17T22:18:00.571Z,78.31
2019-03-17T22:20:29.499Z,77.96
2019-03-17T22:22:58.506Z,78.14
2019-03-17T22:25:27.380Z,77.91
2019-03-17T22:28:07.845Z,77.93
2019-03-17T22:30:25.363Z,78.37
2019-03-17T22:32:54.254Z,78.01
2019-03-17T22:35:23.246Z,78.59
2019-03-17T22:37:52.239Z,78.51
2019-03-17T22:40:21.165Z,78.54
2019-03-17T22:42:50.115Z,78.33
2019-03-17T22:45:19.147Z,78.69
2019-03-17T22:47:48.036Z,78.70
2019-03-17T22:50:17.034Z,78.92
2019-03-17T22:52:47.753Z,79.84
2019-03-17T22:55:16.760Z,79.64
2019-03-17T22:57:45.858Z,79.74
2019-03-17T23:00:15.970Z,79.65
2019-03-17T23:02:44.913Z,79.23
2019-03-17T23:05:14.039Z,80.34
2019-03-17T23:07:43.035Z,79.98
2019-03-17T23:10:11.977Z,80.79
2019-03-17T23:12:40.944Z,81.00
2019-03-17T23:15:09.826Z,80.45
2019-03-17T23:17:38.772Z,80.60
2019-03-17T23:20:08.510Z,80.88
2019-03-17T23:22:37.435Z,80.66
2019-03-17T23:25:06.709Z,81.23
2019-03-17T23:27:35.622Z,81.34
2019-03-17T23:30:04.857Z,82.20
2019-03-17T23:32:33.841Z,81.55
2019-03-17T23:35:02.838Z,81.30
2019-03-17T23:37:31.796Z,81.86
2019-03-17T23:40:00.791Z,81.26
2019-03-17T23:42:29.756Z,81.34
2019-03-17T23:44:58.659Z,81.59
2019-03-17T23:47:27.640Z,82.06
2019-03-17T23:49:56.585Z,82.71
2019-03-17T23:52:25.476Z,82.35
2019-03-17T23:54:54.688Z,82.61
2019-03-17T23:57:23.716Z,82.36
2019-03-17T23:59:52.661Z,82.00
